Airfield :
LOGIN :

Register | Disclaimer

   EN    FR    IT 

 










Legend :    VFR   Marginal VFR   IFR   Intensive IFR   Very Intensive IFR
Visi :
Ceiling :
>= 8 km
>= 3000ft
5 to 8 km
1000 to 3000 ft
1500m to 5 km
500 to 1000 ft
800 to 1500m
200 to 500 ft
< 800m
< 200 ft
Symbols :   Thunderstorms  Fog  Heavy snow  Heavy precipitations  Wind > 20 kt
SIGMETs :     Misc.  Thunderstorms  Icing  Turbulence  Mountain Waves  Volcanic Ashes






- Airport Elevation : 65 ft
- IATA code : PIK


EGPK - Glasgow Prestwick

CURRENT METAR :
  • 291950Z 21018KT 9999 -RA FEW014 BKN025 09/07 Q0998

EXPIRED METARs :
  • 291920Z 21016KT 9999 -RA FEW014 BKN025 09/07 Q0998
  • 291850Z 21019KT 9999 -RA FEW014 BKN025 09/07 Q0997
  • 291820Z 21019KT 9000 -RA BKN018 09/07 Q0997
  • 291750Z 21016KT 9000 -RA BKN016 09/07 Q0997
  • 291720Z 22018KT 9000 -RA BKN015 09/07 Q0997

TAF TAF EGPK
Valid from the 29 at 18:00 until the 30 at 18:00 UTC


291701Z 2918/3018 23017KT 9999 SCT020
TEMPO 2918/2924 24023G36KT 6000 RA BKN012
PROB30
TEMPO 2918/2920 3000 RADZ +RA BKN008
BECMG 3000/3003 20007KT
BECMG 3008/3011 20019KT
TEMPO 3008/3014 20025G35KT
TEMPO 3008/3012 6000 RA BKN010
PROB40
TEMPO 3008/3012 4000 RADZ BR BKN005
BECMG 3013/3015 26017KT
TEMPO 3014/3018 26022G35KT



MET'MAP, your aeronautical weather chart ! - Copyright ORBIFLY December 2007 - Disclaimer

ORBIFLY MET'MAP TEAM :

Programming & Development : Alexandra Zaïnal
Concept & original design : Baudouin d'Aumeries
Assistance for programming : Marc-Olivier Méhu
Technical & hardware support : Manuel Goepfert

Contact : metmap@orbifly.com




SOURCES & CREDITS :

   NOAA